Time;durP1;ratioP1;P1;durP2;ratioP2;P2;SDS_P1;SDS_P2;PMS_P1;PMS_P2;Temp;Humidity;BMP_temperature;BMP_pressure;BME280_temperature;BME280_humidity;BME280_pressure;Samples;Min_cycle;Max_cycle;Signal;HPM_P1;HPM_P2
2022/12/01 00:00:45;;;;;;;67.53;28.55;;;3.00;99.90;;;;;;5082282;28;20024;-76
2022/12/01 00:03:11;;;;;;;62.53;28.42;;;3.00;99.90;;;;;;5064271;28;20455;-76
2022/12/01 00:05:37;;;;;;;64.25;28.52;;;2.90;99.90;;;;;;5064458;28;20071;-76
2022/12/01 00:08:06;;;;;;;60.53;27.30;;;2.90;99.90;;;;;;5080994;28;20119;-76
2022/12/01 00:10:32;;;;;;;;;;;2.80;99.90;;;;;;5064000;28;20464;-76
2022/12/01 00:13:01;;;;;;;65.55;26.02;;;2.80;99.90;;;;;;5063332;28;19904;-75
2022/12/01 00:15:29;;;;;;;69.53;28.08;;;2.80;99.90;;;;;;5081242;28;20084;-75
2022/12/01 00:17:56;;;;;;;65.55;27.73;;;2.70;99.90;;;;;;5064176;28;20036;-75
2022/12/01 00:20:22;;;;;;;68.78;27.02;;;2.70;99.90;;;;;;5064048;28;20024;-75
2022/12/01 00:22:48;;;;;;;66.05;28.50;;;2.60;99.90;;;;;;5063436;28;20083;-75
2022/12/01 00:25:16;;;;;;;65.05;27.80;;;2.60;99.90;;;;;;5080376;28;20029;-75
2022/12/01 00:27:42;;;;;;;65.45;26.85;;;2.60;99.90;;;;;;5080455;28;20032;-75
2022/12/01 00:30:10;;;;;;;66.32;28.67;;;2.50;99.90;;;;;;5079820;28;20027;-75
2022/12/01 00:32:37;;;;;;;62.83;27.02;;;2.50;99.90;;;;;;5063308;28;20021;-75
2022/12/01 00:35:04;;;;;;;74.88;30.13;;;2.40;99.90;;;;;;5082536;28;20108;-75
2022/12/01 00:37:31;;;;;;;64.43;29.88;;;2.40;99.90;;;;;;5064234;28;20082;-76
2022/12/01 00:39:57;;;;;;;74.20;28.58;;;2.40;99.90;;;;;;5083400;28;20025;-75
2022/12/01 00:42:23;;;;;;;71.53;29.10;;;2.40;99.90;;;;;;5083793;28;20024;-75
2022/12/01 00:44:49;;;;;;;72.25;28.60;;;2.40;99.90;;;;;;5083955;28;20106;-75
2022/12/01 00:47:15;;;;;;;67.85;27.42;;;2.40;99.90;;;;;;5063982;28;20025;-75
2022/12/01 00:49:42;;;;;;;66.47;27.35;;;2.30;99.90;;;;;;5080209;28;20380;-75
2022/12/01 00:52:08;;;;;;;75.55;28.23;;;2.30;99.90;;;;;;5079789;28;20561;-75
2022/12/01 00:54:33;;;;;;;73.65;30.02;;;2.30;99.90;;;;;;5062792;28;20115;-76
2022/12/01 00:56:59;;;;;;;77.18;29.13;;;2.30;99.90;;;;;;5062850;28;20388;-75
2022/12/01 00:59:25;;;;;;;72.43;28.27;;;2.20;99.90;;;;;;5061265;28;20486;-75
2022/12/01 01:01:52;;;;;;;66.18;27.35;;;2.20;99.90;;;;;;5079652;28;20070;-75
2022/12/01 01:04:18;;;;;;;74.85;29.50;;;2.20;99.90;;;;;;5079091;28;20384;-75
2022/12/01 01:06:44;;;;;;;68.93;28.15;;;2.10;99.90;;;;;;5059667;28;20043;-75
2022/12/01 01:09:11;;;;;;;77.20;30.50;;;2.10;99.90;;;;;;5059455;28;20104;-75
2022/12/01 01:11:36;;;;;;;72.68;28.90;;;2.00;99.90;;;;;;5059173;28;20049;-75
2022/12/01 01:14:02;;;;;;;83.63;30.92;;;2.00;99.90;;;;;;5059152;28;20067;-74
2022/12/01 01:16:28;;;;;;;73.80;28.40;;;2.00;99.90;;;;;;5076684;28;20029;-75
2022/12/01 01:18:54;;;;;;;81.60;28.80;;;2.00;99.90;;;;;;5058364;28;20077;-75
2022/12/01 01:21:21;;;;;;;78.22;29.05;;;1.90;99.90;;;;;;5058297;28;20025;-74
2022/12/01 01:23:51;;;;;;;83.90;29.75;;;2.00;99.90;;;;;;5058941;28;20028;-75
2022/12/01 01:26:25;;;;;;;77.50;30.27;;;1.90;99.90;;;;;;5076552;28;20103;-75
2022/12/01 01:28:52;;;;;;;76.57;27.70;;;1.90;99.90;;;;;;5076041;28;20376;-75
2022/12/01 01:31:21;;;;;;;79.53;31.60;;;1.90;99.90;;;;;;5076867;28;20044;-75
2022/12/01 01:33:47;;;;;;;81.50;29.85;;;2.00;99.90;;;;;;5077958;28;20024;-75
2022/12/01 01:36:14;;;;;;;80.72;30.38;;;1.90;99.90;;;;;;5083442;28;20151;-76
2022/12/01 01:38:40;;;;;;;75.68;29.08;;;1.90;99.90;;;;;;5065836;28;20028;-75
2022/12/01 01:41:07;;;;;;;91.28;31.35;;;1.90;99.90;;;;;;5063493;28;20029;-75
2022/12/01 01:43:54;;;;;;;84.93;30.80;;;1.90;99.90;;;;;;5061044;28;20123;-76
2022/12/01 01:46:27;;;;;;;80.85;31.02;;;1.90;99.90;;;;;;5060884;28;20447;-75
2022/12/01 01:48:59;;;;;;;76.38;29.25;;;1.90;99.90;;;;;;5078314;28;20083;-75
2022/12/01 01:51:42;;;;;;;83.13;28.88;;;1.90;99.90;;;;;;5077228;28;20048;-75
2022/12/01 01:54:16;;;;;;;83.47;30.70;;;1.80;99.90;;;;;;5077414;28;20529;-75
2022/12/01 01:56:46;;;;;;;87.13;31.38;;;1.90;99.90;;;;;;5077400;28;20032;-75
2022/12/01 01:59:17;;;;;;;79.10;30.65;;;1.80;99.90;;;;;;5060687;28;20077;-76
2022/12/01 02:01:44;;;;;;;83.95;29.90;;;1.80;99.90;;;;;;5060991;28;20028;-75
2022/12/01 02:04:11;;;;;;;86.38;30.35;;;1.80;99.90;;;;;;5077916;28;20032;-75
2022/12/01 02:06:37;;;;;;;85.35;31.15;;;1.80;99.90;;;;;;5059623;28;20032;-75
2022/12/01 02:09:03;;;;;;;87.00;31.30;;;1.80;99.90;;;;;;5077548;28;20036;-75
2022/12/01 02:12:05;;;;;;;78.22;29.48;;;1.70;99.90;;;;;;5059778;28;20116;-75
2022/12/01 02:14:52;;;;;;;78.68;30.23;;;1.70;99.90;;;;;;5059813;28;20464;-74
2022/12/01 02:17:33;;;;;;;96.20;31.42;;;1.70;99.90;;;;;;5078535;28;20162;-75
2022/12/01 02:20:30;;;;;;;85.93;31.20;;;1.70;99.90;;;;;;5060466;28;20029;-75
2022/12/01 02:23:29;;;;;;;78.50;29.98;;;1.70;99.90;;;;;;5061430;28;20060;-75
2022/12/01 02:26:15;;;;;;;79.32;31.27;;;1.70;99.90;;;;;;5079873;28;20017;-75
2022/12/01 02:29:01;;;;;;;78.28;28.10;;;1.70;99.90;;;;;;5061404;28;20072;-75
2022/12/01 02:31:58;;;;;;;82.60;29.92;;;1.70;99.90;;;;;;5061424;28;20357;-75
2022/12/01 02:34:35;;;;;;;78.47;29.70;;;1.60;99.90;;;;;;5060334;28;20457;-75
2022/12/01 02:37:13;;;;;;;78.97;31.15;;;1.70;99.90;;;;;;5061944;28;20414;-75
2022/12/01 02:39:55;;;;;;;76.22;32.45;;;1.70;99.90;;;;;;5078955;28;20021;-76
2022/12/01 02:43:07;;;;;;;84.05;30.05;;;1.60;99.90;;;;;;5078437;28;20033;-75
2022/12/01 02:45:44;;;;;;;75.85;28.17;;;1.60;99.90;;;;;;5051442;28;20396;-75
2022/12/01 02:48:32;;;;;;;79.35;29.83;;;1.60;99.90;;;;;;5061376;28;20064;-75
2022/12/01 02:51:08;;;;;;;76.22;28.23;;;1.60;99.90;;;;;;5079128;28;20078;-75
2022/12/01 02:53:34;;;;;;;77.80;30.05;;;1.50;99.90;;;;;;5078619;28;20035;-75
2022/12/01 02:56:03;;;;;;;81.00;28.50;;;1.50;99.90;;;;;;5079031;28;20025;-75
2022/12/01 02:58:30;;;;;;;71.80;28.27;;;1.40;99.90;;;;;;5078387;28;20116;-75
2022/12/01 03:01:30;;;;;;;85.57;29.70;;;1.40;99.90;;;;;;5079109;28;20082;-76
2022/12/01 03:04:10;;;;;;;81.65;29.40;;;1.40;99.90;;;;;;5079062;28;20107;-75
2022/12/01 03:06:41;;;;;;;79.35;29.58;;;1.40;99.90;;;;;;5078936;28;20465;-76
2022/12/01 03:09:47;;;;;;;78.60;28.45;;;1.40;99.90;;;;;;5078731;28;20167;-75
2022/12/01 03:12:18;;;;;;;80.80;30.15;;;1.40;99.90;;;;;;5038357;28;20037;-75
2022/12/01 03:15:08;;;;;;;69.95;27.65;;;1.40;99.90;;;;;;5078159;28;20028;-75
2022/12/01 03:17:45;;;;;;;80.28;28.95;;;1.30;99.90;;;;;;5078974;28;20033;-75
2022/12/01 03:20:21;;;;;;;78.05;30.15;;;1.30;99.90;;;;;;5060334;28;20036;-75
2022/12/01 03:22:55;;;;;;;79.22;28.85;;;1.30;99.90;;;;;;5078540;28;20115;-75
2022/12/01 03:25:25;;;;;;;81.22;31.05;;;1.30;99.90;;;;;;5078247;28;20023;-75
2022/12/01 03:27:55;;;;;;;80.50;29.17;;;1.30;99.90;;;;;;5078704;28;20038;-75
2022/12/01 03:30:25;;;;;;;79.55;30.40;;;1.30;99.90;;;;;;5079933;28;20024;-75
2022/12/01 03:32:56;;;;;;;72.15;29.63;;;1.30;99.90;;;;;;5079443;28;20053;-74
2022/12/01 03:35:25;;;;;;;80.13;30.77;;;1.30;99.90;;;;;;5080385;28;20025;-76
2022/12/01 03:38:16;;;;;;;81.45;29.92;;;1.30;99.90;;;;;;5062241;28;20059;-76
2022/12/01 03:40:43;;;;;;;78.60;29.42;;;1.20;99.90;;;;;;5060744;28;20086;-75
2022/12/01 03:43:14;;;;;;;81.57;30.42;;;1.30;99.90;;;;;;5061390;28;20380;-76
2022/12/01 03:46:05;;;;;;;75.32;27.70;;;1.20;99.90;;;;;;5065323;28;20115;-75
2022/12/01 03:48:31;;;;;;;69.88;27.73;;;1.30;99.90;;;;;;5064045;28;20218;-75
2022/12/01 03:51:25;;;;;;;78.53;29.42;;;1.20;99.90;;;;;;5081768;28;20131;-75
2022/12/01 03:54:12;;;;;;;78.10;29.50;;;1.20;99.90;;;;;;5080836;28;20029;-75
2022/12/01 03:56:54;;;;;;;73.30;28.33;;;1.20;99.90;;;;;;5080613;28;20111;-75
2022/12/01 03:59:23;;;;;;;84.63;29.27;;;1.20;99.90;;;;;;5062219;28;20119;-75
2022/12/01 04:01:49;;;;;;;80.97;29.52;;;1.20;99.90;;;;;;5062428;28;20495;-76
2022/12/01 04:04:15;;;;;;;76.95;29.55;;;1.20;99.90;;;;;;5061897;28;20029;-75
2022/12/01 04:06:44;;;;;;;70.15;28.65;;;1.10;99.90;;;;;;5079977;28;20051;-76
2022/12/01 04:09:11;;;;;;;73.22;29.80;;;1.10;99.90;;;;;;5080274;28;20029;-76
2022/12/01 04:14:21;;;;;;;76.05;28.92;;;1.10;99.90;;;;;;5080476;28;20039;-75
2022/12/01 04:16:47;;;;;;;83.25;30.30;;;1.10;99.90;;;;;;5061206;28;20119;-75
2022/12/01 04:19:13;;;;;;;76.72;28.73;;;1.00;99.90;;;;;;5062025;28;20056;-75
2022/12/01 04:21:39;;;;;;;76.47;29.17;;;1.00;99.90;;;;;;5078976;28;20028;-75
2022/12/01 04:24:05;;;;;;;82.78;29.27;;;1.00;99.90;;;;;;5059545;28;20096;-75
2022/12/01 04:26:35;;;;;;;78.97;29.60;;;1.00;99.90;;;;;;5077370;28;20052;-75
2022/12/01 04:29:07;;;;;;;83.20;29.92;;;1.10;99.90;;;;;;5077192;28;20040;-75
2022/12/01 04:31:33;;;;;;;79.70;29.45;;;1.00;99.90;;;;;;5077511;28;20053;-76
2022/12/01 04:33:59;;;;;;;77.90;29.27;;;1.00;99.90;;;;;;5058730;28;20032;-75
2022/12/01 04:36:28;;;;;;;81.38;28.85;;;1.00;99.90;;;;;;5058670;28;20032;-75
2022/12/01 04:38:54;;;;;;;80.22;29.15;;;1.00;99.90;;;;;;5076985;28;20456;-75
2022/12/01 04:41:20;;;;;;;81.88;28.55;;;1.00;99.90;;;;;;5058666;28;20036;-75
2022/12/01 04:43:46;;;;;;;85.00;30.77;;;1.00;99.90;;;;;;5059220;28;20027;-75
2022/12/01 04:46:11;;;;;;;84.18;30.48;;;1.10;99.90;;;;;;5058851;28;20032;-76
2022/12/01 04:48:38;;;;;;;79.88;29.65;;;1.10;99.90;;;;;;5058935;28;20436;-75
2022/12/01 04:51:06;;;;;;;87.60;30.00;;;1.10;99.90;;;;;;5059994;28;20078;-75
2022/12/01 04:53:32;;;;;;;77.43;29.00;;;1.10;99.90;;;;;;5060667;28;20530;-75
2022/12/01 04:56:00;;;;;;;73.35;28.85;;;1.10;99.90;;;;;;5077754;28;20024;-75
2022/12/01 04:58:27;;;;;;;56.50;22.37;;;1.20;99.90;;;;;;5060137;28;20036;-75
2022/12/01 05:00:52;;;;;;;75.88;29.52;;;1.20;99.90;;;;;;5075893;28;20259;-75
2022/12/01 05:03:18;;;;;;;78.45;28.15;;;1.30;99.90;;;;;;5058055;28;20029;-75
2022/12/01 05:05:43;;;;;;;81.03;29.52;;;1.30;99.90;;;;;;5076855;28;20021;-76
2022/12/01 05:08:10;;;;;;;86.50;32.13;;;1.10;99.90;;;;;;5077602;28;20063;-76
2022/12/01 05:10:36;;;;;;;81.50;30.40;;;1.20;99.90;;;;;;5059584;28;20020;-76
2022/12/01 05:13:03;;;;;;;78.50;29.80;;;1.20;99.90;;;;;;5058294;28;20021;-72
2022/12/01 05:15:29;;;;;;;84.65;31.67;;;1.20;99.90;;;;;;5076246;28;20032;-75
2022/12/01 05:17:55;;;;;;;86.68;29.83;;;1.20;99.90;;;;;;5076594;28;20036;-75
2022/12/01 05:23:07;;;;;;;72.60;28.13;;;1.30;99.90;;;;;;5076521;28;20077;-75
2022/12/01 05:25:33;;;;;;;80.68;29.52;;;1.30;99.90;;;;;;5076484;28;20058;-78
2022/12/01 05:27:59;;;;;;;81.78;27.58;;;1.30;99.90;;;;;;5058908;28;20059;-77
2022/12/01 05:30:24;;;;;;;79.80;28.95;;;1.30;99.90;;;;;;5078086;28;20028;-79
2022/12/01 05:32:50;;;;;;;77.20;30.15;;;1.30;99.90;;;;;;5058979;28;20028;-75
2022/12/01 05:35:16;;;;;;;78.13;28.73;;;1.30;99.90;;;;;;5062067;28;20020;-76
2022/12/01 05:37:41;;;;;;;80.68;29.17;;;1.30;99.90;;;;;;5080207;28;20032;-75
2022/12/01 05:40:07;;;;;;;82.55;31.48;;;1.20;99.90;;;;;;5081550;28;20020;-77
2022/12/01 05:42:33;;;;;;;83.00;29.77;;;1.20;99.90;;;;;;5081966;28;20025;-77
2022/12/01 05:44:59;;;;;;;82.82;31.30;;;1.20;99.90;;;;;;5063241;28;20037;-76
2022/12/01 05:47:24;;;;;;;77.90;27.48;;;1.20;99.90;;;;;;5063460;28;20028;-76
2022/12/01 05:49:50;;;;;;;81.18;29.45;;;1.20;99.90;;;;;;5079904;28;20021;-76
2022/12/01 05:52:16;;;;;;;80.05;29.02;;;1.20;99.90;;;;;;5061877;28;20148;-76
2022/12/01 05:54:41;;;;;;;86.40;31.48;;;1.20;99.90;;;;;;5062579;28;20051;-76
2022/12/01 05:57:07;;;;;;;81.22;31.00;;;1.20;99.90;;;;;;5062150;28;20025;-76
2022/12/01 05:59:33;;;;;;;77.10;29.52;;;1.20;99.90;;;;;;5079523;28;20467;-77
2022/12/01 06:01:58;;;;;;;81.57;29.08;;;1.30;99.90;;;;;;5079518;28;20029;-76
2022/12/01 06:04:24;;;;;;;86.53;31.15;;;1.30;99.90;;;;;;5062870;28;20036;-76
2022/12/01 06:06:50;;;;;;;79.20;30.25;;;1.30;99.90;;;;;;5080830;28;20464;-77
2022/12/01 06:09:15;;;;;;;78.65;29.88;;;1.40;99.90;;;;;;5082987;28;20028;-76
2022/12/01 06:11:41;;;;;;;79.70;29.15;;;1.40;99.90;;;;;;5069526;28;20028;-76
2022/12/01 06:14:07;;;;;;;78.45;30.30;;;1.40;99.90;;;;;;5088422;28;20375;-76
2022/12/01 06:16:33;;;;;;;80.43;31.67;;;1.40;99.90;;;;;;5069008;28;20051;-76
2022/12/01 06:18:59;;;;;;;85.38;30.67;;;1.40;99.90;;;;;;5065709;28;20032;-76
2022/12/01 06:21:24;;;;;;;83.75;30.73;;;1.40;99.90;;;;;;5084130;28;20433;-76
2022/12/01 06:23:50;;;;;;;82.15;30.45;;;1.40;99.90;;;;;;5065664;28;20024;-76
2022/12/01 06:26:16;;;;;;;82.30;30.55;;;1.40;99.90;;;;;;5065279;28;20487;-76
2022/12/01 06:28:41;;;;;;;76.95;29.05;;;1.40;99.90;;;;;;5064694;28;20047;-76
2022/12/01 06:31:07;;;;;;;75.88;29.25;;;1.60;99.90;;;;;;5082242;28;20547;-76
2022/12/01 06:33:33;;;;;;;75.53;29.08;;;1.40;99.90;;;;;;5063878;28;20020;-76
2022/12/01 06:36:00;;;;;;;76.68;28.73;;;1.40;99.90;;;;;;5064861;28;20020;-76
2022/12/01 06:38:29;;;;;;;78.22;29.58;;;1.40;99.90;;;;;;5087189;28;20025;-77
2022/12/01 06:40:54;;;;;;;82.93;30.27;;;1.40;99.90;;;;;;5068065;28;20073;-77
2022/12/01 06:43:20;;;;;;;80.43;29.00;;;1.40;99.90;;;;;;5083884;28;20052;-76
2022/12/01 06:45:46;;;;;;;74.88;28.70;;;1.40;99.90;;;;;;5064922;28;20024;-76
2022/12/01 06:48:11;;;;;;;84.55;30.40;;;1.40;99.90;;;;;;5083119;28;20032;-76
2022/12/01 06:50:37;;;;;;;83.55;30.27;;;1.50;99.90;;;;;;5063896;28;20033;-76
2022/12/01 06:53:03;;;;;;;77.47;29.38;;;1.40;99.90;;;;;;5081791;28;20031;-76
2022/12/01 06:55:29;;;;;;;87.47;30.33;;;1.30;99.90;;;;;;5062028;28;20024;-76
2022/12/01 06:57:54;;;;;;;77.95;30.63;;;1.30;99.90;;;;;;5079441;28;20028;-76
2022/12/01 07:00:20;;;;;;;81.60;30.80;;;1.40;99.90;;;;;;5080088;28;20063;-76
2022/12/01 07:02:46;;;;;;;81.43;31.13;;;1.30;99.90;;;;;;5080153;28;20024;-76
2022/12/01 07:05:11;;;;;;;79.43;30.33;;;1.40;99.90;;;;;;5079356;28;20052;-76
2022/12/01 07:07:38;;;;;;;75.68;29.20;;;1.30;99.90;;;;;;5080307;28;20021;-77
2022/12/01 07:10:05;;;;;;;79.93;30.90;;;1.30;99.90;;;;;;5063096;28;20051;-76
2022/12/01 07:12:31;;;;;;;88.13;30.73;;;1.30;99.90;;;;;;5061729;28;20033;-76
2022/12/01 07:14:57;;;;;;;83.82;30.85;;;1.40;99.90;;;;;;5079433;28;20518;-76
2022/12/01 07:17:23;;;;;;;76.25;29.38;;;1.40;99.90;;;;;;5060706;28;20119;-76
2022/12/01 07:19:48;;;;;;;77.40;29.13;;;1.40;99.90;;;;;;5077705;28;20032;-76
2022/12/01 07:22:14;;;;;;;78.75;29.45;;;1.40;99.90;;;;;;5076952;28;20021;-76
2022/12/01 07:24:40;;;;;;;85.78;29.13;;;1.40;99.90;;;;;;5077857;28;20055;-76
2022/12/01 07:27:06;;;;;;;84.05;30.05;;;1.60;99.90;;;;;;5060379;28;20119;-76
2022/12/01 07:29:32;;;;;;;79.22;29.65;;;1.40;99.90;;;;;;5077413;28;20523;-76
2022/12/01 07:31:57;;;;;;;82.25;31.08;;;1.50;99.90;;;;;;5078808;28;20027;-76
2022/12/01 07:34:23;;;;;;;90.35;32.45;;;1.40;99.90;;;;;;5079457;28;20027;-76
2022/12/01 07:36:49;;;;;;;76.70;31.58;;;1.50;99.90;;;;;;5060380;28;20024;-76
2022/12/01 07:39:14;;;;;;;75.90;29.75;;;1.50;99.90;;;;;;5061325;28;20025;-76
2022/12/01 07:41:40;;;;;;;77.40;29.52;;;1.60;99.90;;;;;;5061680;28;20029;-76
2022/12/01 07:44:06;;;;;;;77.57;28.98;;;1.60;99.90;;;;;;5061075;28;20029;-76
2022/12/01 07:46:31;;;;;;;84.80;30.65;;;1.60;99.90;;;;;;5081155;28;20465;-76
2022/12/01 07:48:58;;;;;;;77.65;29.27;;;1.60;99.90;;;;;;5080125;28;20040;-77
2022/12/01 07:51:24;;;;;;;78.47;29.50;;;1.60;99.90;;;;;;5062784;28;20054;-77
2022/12/01 07:53:51;;;;;;;76.07;31.15;;;1.70;99.90;;;;;;5063313;28;20038;-76
2022/12/01 07:56:18;;;;;;;78.25;30.65;;;1.70;99.90;;;;;;5079235;28;20020;-77
2022/12/01 07:58:43;;;;;;;74.78;31.05;;;1.70;99.90;;;;;;5080809;28;20075;-77
2022/12/01 08:01:15;;;;;;;70.18;27.85;;;1.80;99.90;;;;;;5067851;28;20025;-77
2022/12/01 08:03:41;;;;;;;77.47;29.70;;;1.70;99.90;;;;;;5067006;28;20020;-76
2022/12/01 08:06:08;;;;;;;77.75;31.55;;;1.90;99.90;;;;;;5086269;28;20028;-77
2022/12/01 08:08:35;;;;;;;80.05;30.95;;;1.90;99.90;;;;;;5068219;28;20052;-77
2022/12/01 08:11:04;;;;;;;77.75;29.90;;;1.90;99.90;;;;;;5085186;28;20025;-76
2022/12/01 08:13:30;;;;;;;88.43;31.83;;;1.90;99.90;;;;;;5066182;28;20023;-76
2022/12/01 08:15:56;;;;;;;78.85;31.25;;;2.00;99.90;;;;;;5066776;28;20032;-76
2022/12/01 08:18:23;;;;;;;74.65;29.17;;;2.10;99.90;;;;;;5084417;28;20388;-76
2022/12/01 08:20:56;;;;;;;73.38;29.38;;;2.20;99.90;;;;;;5067799;28;20060;-77
2022/12/01 08:23:22;;;;;;;78.57;30.50;;;2.30;99.90;;;;;;5085240;28;20028;-77
2022/12/01 08:25:48;;;;;;;74.85;31.05;;;2.40;99.90;;;;;;5085419;28;20395;-77
2022/12/01 08:28:14;;;;;;;70.90;28.50;;;2.50;99.90;;;;;;5083069;28;20033;-78
2022/12/01 08:30:39;;;;;;;70.45;29.75;;;2.60;99.90;;;;;;5064016;28;20096;-77
2022/12/01 08:33:05;;;;;;;69.78;28.98;;;2.80;99.90;;;;;;5083975;28;20020;-77
2022/12/01 08:35:35;;;;;;;67.43;29.10;;;3.00;99.90;;;;;;5066103;28;20517;-77
2022/12/01 08:38:00;;;;;;;73.80;31.00;;;3.20;99.90;;;;;;5083980;28;20036;-77
2022/12/01 08:40:26;;;;;;;73.10;30.20;;;3.50;99.90;;;;;;5080458;28;20025;-78
2022/12/01 08:42:52;;;;;;;67.25;28.25;;;3.80;99.90;;;;;;5077721;28;20028;-78
2022/12/01 08:45:18;;;;;;;74.18;30.83;;;4.20;99.90;;;;;;5064331;28;20040;-78
2022/12/01 08:47:43;;;;;;;67.93;29.65;;;4.70;99.90;;;;;;5067103;28;20025;-78
2022/12/01 08:50:10;;;;;;;61.67;27.70;;;5.00;99.90;;;;;;5066209;28;20021;-78
2022/12/01 08:52:35;;;;;;;68.90;29.92;;;5.10;99.90;;;;;;5084150;28;20048;-78
2022/12/01 08:55:02;;;;;;;70.10;29.83;;;5.10;99.90;;;;;;5064040;28;20111;-78
2022/12/01 08:57:31;;;;;;;69.95;30.10;;;5.10;99.90;;;;;;5083221;28;20076;-77
2022/12/01 08:59:57;;;;;;;68.97;29.85;;;5.00;99.90;;;;;;5066997;28;20028;-78
2022/12/01 09:02:22;;;;;;;65.68;27.88;;;4.90;99.90;;;;;;5080543;28;20464;-78
2022/12/01 09:04:49;;;;;;;77.13;29.42;;;4.70;99.90;;;;;;5080555;28;20103;-78
2022/12/01 09:07:15;;;;;;;72.22;31.15;;;4.60;99.90;;;;;;5076729;28;20052;-78
2022/12/01 09:09:42;;;;;;;72.47;29.00;;;4.60;99.90;;;;;;5080623;28;20160;-78
2022/12/01 09:12:08;;;;;;;64.30;27.60;;;4.50;99.90;;;;;;5081032;28;20344;-78
2022/12/01 09:14:39;;;;;;;69.28;29.50;;;4.50;99.90;;;;;;5080705;28;20464;-78
2022/12/01 09:17:06;;;;;;;66.00;28.15;;;4.40;99.90;;;;;;5062673;28;20036;-78
2022/12/01 09:19:31;;;;;;;63.08;27.80;;;4.40;99.90;;;;;;5080014;28;20028;-78
2022/12/01 09:21:57;;;;;;;67.78;29.48;;;4.30;99.90;;;;;;5080433;28;20415;-77
2022/12/01 09:24:23;;;;;;;69.35;27.85;;;4.30;99.90;;;;;;5080573;28;20076;-77
2022/12/01 09:26:49;;;;;;;69.55;28.70;;;4.20;99.90;;;;;;5082519;28;20540;-77
2022/12/01 09:29:15;;;;;;;72.88;29.40;;;4.20;99.90;;;;;;5064383;28;20063;-77
2022/12/01 09:31:42;;;;;;;66.78;29.40;;;4.20;99.90;;;;;;5065058;28;20584;-77
2022/12/01 09:34:12;;;;;;;68.45;29.48;;;4.20;99.90;;;;;;5065369;28;20029;-77
2022/12/01 09:36:38;;;;;;;62.03;29.10;;;4.10;99.90;;;;;;5066643;28;20115;-77
2022/12/01 09:39:07;;;;;;;67.97;29.33;;;4.10;99.90;;;;;;5086019;28;20025;-77
2022/12/01 09:41:37;;;;;;;67.18;29.33;;;4.10;99.90;;;;;;5086967;28;20025;-77
2022/12/01 09:44:34;;;;;;;68.78;27.58;;;4.20;99.90;;;;;;5067902;28;20052;-77
2022/12/01 09:47:06;;;;;;;76.43;29.08;;;4.40;99.90;;;;;;5068414;28;20029;-77
2022/12/01 09:50:24;;;;;;;65.68;28.45;;;4.50;99.90;;;;;;5087673;28;20088;-77
2022/12/01 09:53:01;;;;;;;73.03;30.00;;;4.70;99.90;;;;;;5036460;28;20071;-78
2022/12/01 09:55:29;;;;;;;66.38;26.90;;;5.00;99.90;;;;;;5081882;28;20021;-77
2022/12/01 09:57:59;;;;;;;61.42;27.75;;;5.20;99.90;;;;;;5081068;28;20090;-77
2022/12/01 10:00:33;;;;;;;60.80;28.42;;;5.10;99.90;;;;;;5062751;28;20119;-77
2022/12/01 10:03:08;;;;;;;65.72;28.35;;;4.90;99.90;;;;;;5063406;28;20054;-77
2022/12/01 10:05:59;;;;;;;67.30;29.20;;;4.70;99.90;;;;;;5081881;28;20021;-77
2022/12/01 10:08:32;;;;;;;66.38;26.80;;;4.50;99.90;;;;;;5065230;28;20064;-77
2022/12/01 10:11:27;;;;;;;67.10;28.63;;;4.40;99.90;;;;;;5068272;28;20069;-77
2022/12/01 10:13:52;;;;;;;65.45;27.83;;;4.40;99.90;;;;;;5060883;28;20043;-78
2022/12/01 10:16:26;;;;;;;60.25;27.33;;;4.40;99.90;;;;;;5067620;28;20025;-77
2022/12/01 10:19:10;;;;;;;65.65;28.05;;;4.40;99.90;;;;;;5066498;28;20047;-77
2022/12/01 10:21:48;;;;;;;65.75;27.30;;;4.30;99.90;;;;;;5067326;28;20052;-77
2022/12/01 10:24:35;;;;;;;63.97;26.95;;;4.20;99.90;;;;;;5066834;28;20086;-77
2022/12/01 10:27:28;;;;;;;63.08;27.25;;;4.20;99.90;;;;;;5084191;28;20099;-77
2022/12/01 10:30:17;;;;;;;60.08;26.80;;;4.30;99.90;;;;;;5084407;28;20028;-77
2022/12/01 10:32:56;;;;;;;65.63;28.05;;;4.30;99.90;;;;;;5082822;28;20024;-77
2022/12/01 10:35:28;;;;;;;65.93;28.15;;;4.20;99.90;;;;;;5065655;28;20050;-77
2022/12/01 10:37:58;;;;;;;71.18;27.77;;;4.20;99.90;;;;;;5064195;28;20032;-77
2022/12/01 10:40:25;;;;;;;67.72;27.83;;;4.10;99.90;;;;;;5063447;28;20040;-77
2022/12/01 10:42:51;;;;;;;61.53;26.80;;;4.20;99.90;;;;;;5082878;28;20085;-77
2022/12/01 10:45:24;;;;;;;80.45;30.10;;;4.10;99.90;;;;;;5068428;28;20484;-77
2022/12/01 10:48:14;;;;;;;62.58;27.02;;;4.20;99.90;;;;;;5068761;28;20040;-77
2022/12/01 10:50:44;;;;;;;63.40;26.73;;;4.20;99.90;;;;;;5069128;28;20032;-77
2022/12/01 10:53:30;;;;;;;62.10;27.15;;;4.20;99.90;;;;;;5070487;28;20025;-77
2022/12/01 10:56:19;;;;;;;59.60;26.98;;;4.30;99.90;;;;;;5064165;28;20024;-77
2022/12/01 10:58:52;;;;;;;60.42;28.00;;;4.40;99.90;;;;;;5081485;28;20032;-77
2022/12/01 11:01:30;;;;;;;63.92;29.55;;;4.40;99.90;;;;;;5063377;28;20028;-77
2022/12/01 11:04:04;;;;;;;68.27;28.07;;;4.30;99.90;;;;;;5063588;28;20024;-77
2022/12/01 11:06:31;;;;;;;61.90;27.15;;;4.40;99.90;;;;;;5063179;28;20036;-77
2022/12/01 11:08:59;;;;;;;59.67;26.75;;;4.60;99.90;;;;;;5080415;28;20033;-77
2022/12/01 11:11:28;;;;;;;64.53;28.45;;;4.60;99.90;;;;;;5061746;28;20464;-77
2022/12/01 11:13:55;;;;;;;;;;;4.70;99.90;;;;;;5062495;28;20029;-76
2022/12/01 11:16:37;;;;;;;69.03;28.52;;;4.80;99.90;;;;;;5079937;28;19904;-77
2022/12/01 11:19:09;;;;;;;65.07;30.00;;;4.60;99.90;;;;;;5080052;28;20032;-77
2022/12/01 11:21:54;;;;;;;67.53;29.83;;;4.60;99.90;;;;;;5061143;28;20082;-77
2022/12/01 11:24:28;;;;;;;65.63;28.70;;;4.60;99.90;;;;;;5061250;28;20111;-77
2022/12/01 11:26:57;;;;;;;62.55;28.98;;;4.50;99.90;;;;;;5079243;28;20030;-77
2022/12/01 11:29:29;;;;;;;63.17;28.73;;;4.50;99.90;;;;;;5060730;28;20082;-77
2022/12/01 11:31:56;;;;;;;64.35;28.35;;;4.50;99.90;;;;;;5059448;28;20028;-77
2022/12/01 11:34:24;;;;;;;67.53;28.70;;;4.50;99.90;;;;;;5078904;28;20086;-77
2022/12/01 11:36:59;;;;;;;63.80;29.40;;;4.50;99.90;;;;;;5078692;28;20103;-77
2022/12/01 11:39:34;;;;;;;65.95;28.63;;;4.60;99.90;;;;;;5061093;28;20147;-77
2022/12/01 11:42:02;;;;;;;64.65;28.75;;;4.70;99.90;;;;;;5061174;28;20036;-77
2022/12/01 11:44:30;;;;;;;61.95;29.10;;;4.70;99.90;;;;;;5060103;28;20024;-77
2022/12/01 11:46:57;;;;;;;59.20;26.83;;;4.80;99.90;;;;;;5060774;28;20464;-77
2022/12/01 11:49:28;;;;;;;64.00;27.50;;;4.80;99.90;;;;;;5077978;28;20452;-77
2022/12/01 11:51:53;;;;;;;62.65;27.77;;;4.80;99.90;;;;;;5077888;28;20049;-77
2022/12/01 11:54:22;;;;;;;65.28;28.95;;;5.10;99.90;;;;;;5076757;28;20035;-77
2022/12/01 11:56:49;;;;;;;67.50;28.40;;;5.20;99.90;;;;;;5062573;28;20024;-77
2022/12/01 11:59:25;;;;;;;66.55;28.67;;;5.20;99.90;;;;;;5061652;28;20029;-77
2022/12/01 12:02:10;;;;;;;64.93;28.58;;;5.10;99.90;;;;;;5080853;28;20023;-77
2022/12/01 12:04:54;;;;;;;65.50;27.83;;;5.10;99.90;;;;;;5081813;28;20029;-77
2022/12/01 12:07:32;;;;;;;67.57;28.23;;;5.00;99.90;;;;;;5080413;28;20022;-77
2022/12/01 12:10:29;;;;;;;65.72;28.73;;;4.90;99.90;;;;;;5062266;28;20410;-77
2022/12/01 12:13:19;;;;;;;65.35;28.55;;;4.80;99.90;;;;;;5064764;28;20025;-77
2022/12/01 12:16:03;;;;;;;65.10;28.65;;;4.80;99.90;;;;;;5084525;28;20047;-77
2022/12/01 12:19:06;;;;;;;64.85;28.35;;;4.80;99.90;;;;;;5067169;28;20029;-77
2022/12/01 12:21:43;;;;;;;62.70;29.23;;;4.80;99.90;;;;;;5064591;28;20036;-77
2022/12/01 12:24:40;;;;;;;65.32;27.02;;;4.80;99.90;;;;;;5064581;28;20111;-77
2022/12/01 12:27:23;;;;;;;62.38;27.67;;;4.80;99.90;;;;;;5064771;28;20426;-77
2022/12/01 12:30:00;;;;;;;65.68;27.42;;;4.80;99.90;;;;;;5082732;28;20032;-77
2022/12/01 12:32:45;;;;;;;60.20;27.02;;;4.70;99.90;;;;;;5082380;28;20024;-78
2022/12/01 12:35:33;;;;;;;61.83;27.27;;;4.70;99.90;;;;;;5082795;28;20028;-77
2022/12/01 12:38:07;;;;;;;63.53;27.17;;;4.80;99.90;;;;;;5066602;28;20035;-77
2022/12/01 12:41:09;;;;;;;66.00;28.60;;;4.80;99.90;;;;;;5067118;28;20020;-77
2022/12/01 12:44:06;;;;;;;63.58;27.95;;;4.80;99.90;;;;;;5065448;28;20029;-77
2022/12/01 12:47:01;;;;;;;64.75;27.95;;;4.80;99.90;;;;;;5084581;28;20021;-77
2022/12/01 12:49:44;;;;;;;60.17;27.42;;;4.70;99.90;;;;;;5065033;28;20039;-78
2022/12/01 12:52:29;;;;;;;62.72;26.52;;;4.70;99.90;;;;;;5079955;28;20102;-77
2022/12/01 12:55:18;;;;;;;66.55;28.98;;;4.70;99.90;;;;;;5061927;28;20522;-78
2022/12/01 12:57:51;;;;;;;;;;;4.70;99.90;;;;;;5077106;28;20033;-78
2022/12/01 13:00:25;;;;;;;67.35;27.85;;;4.60;99.90;;;;;;5083410;28;19904;-78
2022/12/01 13:02:56;;;;;;;67.57;26.75;;;4.50;99.90;;;;;;5064635;28;20029;-78
2022/12/01 13:05:48;;;;;;;66.00;26.92;;;4.50;99.90;;;;;;5065402;28;20550;-77